Kellerton, Iowa
Current Conditions -  °F | °C
As of 12:53 AM on Sunday 23 Nov 2014 (Local Time) from KLWD Reporting Station
Overcast Overcast  
Wind Chill: 53°   Ceiling: 1200
Heat Index: 53°   Visibility: 10mi
Dew Point: 51°   Wind: 12mph
Humidity: 93%   Direction: 200°SSW
Pressure: 29.64"   Gusts: NA
Location:  40.71°N, 94.05°W
Report Text: KLWD 230653Z AUTO 20010KT 10SM OVC012 12/11 A2964 RMK AO2 SLP039 T01170106
Loading
Personal Weather Stations






























Interactive Weather Map New forecast layout! Learn more

10-Day Weather Forecast

Advertisements
Track Severe Weather on mobile